Time;durP1;ratioP1;P1;durP2;ratioP2;P2;SDS_P1;SDS_P2;PMS_P1;PMS_P2;Temp;Humidity;BMP_temperature;BMP_pressure;BME280_temperature;BME280_humidity;BME280_pressure;Samples;Min_cycle;Max_cycle;Signal;HPM_P1;HPM_P2
2022/04/02 00:01:27;;;;;;;11.60;7.57;;;3.00;99.90;;;;;;4993867;28;20026;-68
2022/04/02 00:03:53;;;;;;;10.30;6.63;;;3.00;99.90;;;;;;4988490;28;20037;-70
2022/04/02 00:06:19;;;;;;;14.17;7.87;;;3.00;99.90;;;;;;4995208;28;20026;-69
2022/04/02 00:08:44;;;;;;;11.93;7.67;;;3.00;99.90;;;;;;4984098;28;20026;-69
2022/04/02 00:11:10;;;;;;;12.87;7.53;;;3.00;99.90;;;;;;4993972;28;20105;-69
2022/04/02 00:13:36;;;;;;;12.40;7.93;;;3.00;99.90;;;;;;4992425;28;20485;-69
2022/04/02 00:16:02;;;;;;;10.17;7.07;;;3.00;99.90;;;;;;4991612;28;20028;-69
2022/04/02 00:18:31;;;;;;;11.68;7.93;;;3.00;99.90;;;;;;4996512;28;20030;-71
2022/04/02 00:20:57;;;;;;;11.25;6.95;;;3.00;99.90;;;;;;4990145;28;20037;-69
2022/04/02 00:23:44;;;;;;;;;;;3.00;99.90;;;;;;4991473;28;20032;-68
2022/04/02 00:26:20;;;;;;;12.93;7.40;;;3.00;99.90;;;;;;4992276;28;19952;-71
2022/04/02 00:28:48;;;;;;;12.90;8.15;;;3.10;99.90;;;;;;4990062;28;20022;-70
2022/04/02 00:31:14;;;;;;;14.02;7.78;;;3.00;99.90;;;;;;4993042;28;20710;-70
2022/04/02 00:33:43;;;;;;;15.25;8.45;;;3.00;99.90;;;;;;4990787;28;20014;-68
2022/04/02 00:36:11;;;;;;;12.52;7.78;;;3.00;99.90;;;;;;4992451;28;20624;-71
2022/04/02 00:38:39;;;;;;;11.93;7.03;;;3.00;99.90;;;;;;4990241;28;20014;-69
2022/04/02 00:41:05;;;;;;;11.98;7.50;;;3.00;99.90;;;;;;4991464;28;20037;-69
2022/04/02 00:43:34;;;;;;;13.25;7.70;;;3.10;99.90;;;;;;4994642;28;20025;-69
2022/04/02 00:46:10;;;;;;;11.52;7.22;;;3.00;99.90;;;;;;4987838;28;20168;-71
2022/04/02 00:48:36;;;;;;;13.48;8.60;;;3.00;99.90;;;;;;4995684;28;20018;-71
2022/04/02 00:51:06;;;;;;;12.20;7.68;;;3.00;99.90;;;;;;4990683;28;20128;-69
2022/04/02 00:53:35;;;;;;;15.35;7.68;;;3.00;99.90;;;;;;4991306;28;20828;-68
2022/04/02 00:56:01;;;;;;;14.88;8.02;;;3.00;99.90;;;;;;4988936;28;20472;-69
2022/04/02 00:58:27;;;;;;;;;;;3.00;99.90;;;;;;4990786;28;20030;-68
2022/04/02 01:00:53;;;;;;;14.30;9.20;;;3.00;99.90;;;;;;4985655;28;20279;-70
2022/04/02 01:03:20;;;;;;;13.93;8.60;;;3.00;99.90;;;;;;4991219;28;20057;-68
2022/04/02 01:05:47;;;;;;;13.23;8.15;;;3.00;99.90;;;;;;4988357;28;20038;-68
2022/04/02 01:08:13;;;;;;;15.15;8.73;;;3.00;99.90;;;;;;4995774;28;20030;-69
2022/04/02 01:10:39;;;;;;;14.30;8.53;;;3.00;99.90;;;;;;4990814;28;20026;-69
2022/04/02 01:13:06;;;;;;;17.40;9.55;;;3.00;99.90;;;;;;4997528;28;20038;-69
2022/04/02 01:15:31;;;;;;;;;;;3.00;99.90;;;;;;4996717;28;20399;-69
2022/04/02 01:17:57;;;;;;;13.70;7.75;;;3.00;99.90;;;;;;4992832;28;19913;-69
2022/04/02 01:20:24;;;;;;;15.13;10.07;;;3.00;99.90;;;;;;4993739;28;20026;-69
2022/04/02 01:22:50;;;;;;;15.93;8.88;;;3.00;99.90;;;;;;4993753;28;20049;-69
2022/04/02 01:25:15;;;;;;;15.00;8.65;;;3.00;99.90;;;;;;4995664;28;20038;-68
2022/04/02 01:27:44;;;;;;;12.73;8.17;;;3.00;99.90;;;;;;4991998;28;20033;-69
2022/04/02 01:30:11;;;;;;;15.65;9.35;;;3.10;99.90;;;;;;4995344;28;20356;-68
2022/04/02 01:32:36;;;;;;;12.15;8.25;;;3.10;99.90;;;;;;4997517;28;20026;-69
2022/04/02 01:35:02;;;;;;;13.80;9.10;;;3.10;99.90;;;;;;4989943;28;20520;-70
2022/04/02 01:37:28;;;;;;;13.35;8.57;;;3.10;99.90;;;;;;4994692;28;20080;-69
2022/04/02 01:39:54;;;;;;;15.37;8.57;;;3.10;99.90;;;;;;4991405;28;20467;-69
2022/04/02 01:42:20;;;;;;;16.37;8.60;;;3.10;99.90;;;;;;4995550;28;20029;-68
2022/04/02 01:44:51;;;;;;;14.70;8.82;;;3.10;99.90;;;;;;4993130;28;20172;-69
2022/04/02 01:47:20;;;;;;;15.68;8.77;;;3.10;99.90;;;;;;4998659;28;20018;-69
2022/04/02 01:49:48;;;;;;;14.95;9.05;;;3.10;99.90;;;;;;4991989;28;20029;-69
2022/04/02 01:52:19;;;;;;;13.10;9.02;;;3.10;99.90;;;;;;4992496;28;20459;-69
2022/04/02 01:54:45;;;;;;;14.63;9.55;;;3.20;99.90;;;;;;4988950;28;20085;-69
2022/04/02 01:57:11;;;;;;;17.73;9.77;;;3.20;99.90;;;;;;4994406;28;20095;-69
2022/04/02 01:59:40;;;;;;;14.10;8.67;;;3.20;99.90;;;;;;4990867;28;20033;-71
2022/04/02 02:02:09;;;;;;;17.55;8.95;;;3.20;99.90;;;;;;4994624;28;20029;-70
2022/04/02 02:04:35;;;;;;;14.38;8.93;;;3.10;99.90;;;;;;4994307;28;20165;-70
2022/04/02 02:07:01;;;;;;;14.32;8.48;;;3.10;99.90;;;;;;4994132;28;20116;-70
2022/04/02 02:09:26;;;;;;;14.90;9.43;;;3.10;99.90;;;;;;4991932;28;20503;-70
2022/04/02 02:11:52;;;;;;;14.70;9.63;;;3.10;99.90;;;;;;4994519;28;20587;-69
2022/04/02 02:14:18;;;;;;;19.43;9.47;;;3.10;99.90;;;;;;4991972;28;20025;-69
2022/04/02 02:16:43;;;;;;;14.57;9.17;;;3.10;99.90;;;;;;4988784;28;21168;-69
2022/04/02 02:19:09;;;;;;;14.97;9.40;;;3.10;99.90;;;;;;4997235;28;20719;-69
2022/04/02 02:21:35;;;;;;;15.47;9.03;;;3.10;99.90;;;;;;4991284;28;20014;-69
2022/04/02 02:24:00;;;;;;;16.57;8.47;;;3.10;99.90;;;;;;4996769;28;20102;-69
2022/04/02 02:26:26;;;;;;;15.73;8.83;;;3.10;99.90;;;;;;4992154;28;20400;-69
2022/04/02 02:28:52;;;;;;;13.63;8.73;;;3.10;99.90;;;;;;4996751;28;20422;-69
2022/04/02 02:31:18;;;;;;;15.43;8.37;;;3.10;99.90;;;;;;4990465;28;20549;-69
2022/04/02 02:36:28;;;;;;;15.15;8.43;;;3.10;99.90;;;;;;4990630;28;20555;-69
2022/04/02 02:38:56;;;;;;;15.97;8.63;;;3.10;99.90;;;;;;4996762;28;20018;-68
2022/04/02 02:41:22;;;;;;;14.75;8.23;;;3.10;99.90;;;;;;4988040;28;20030;-69
2022/04/02 02:43:47;;;;;;;15.55;8.80;;;3.10;99.90;;;;;;4997692;28;20185;-68
2022/04/02 02:46:14;;;;;;;16.07;8.83;;;3.00;99.90;;;;;;4990450;28;20663;-69
2022/04/02 02:48:49;;;;;;;14.65;8.98;;;3.00;99.90;;;;;;4992469;28;20049;-68
2022/04/02 02:51:15;;;;;;;14.00;7.40;;;3.00;99.90;;;;;;4990938;28;21401;-69
2022/04/02 02:53:41;;;;;;;15.27;9.17;;;2.90;99.90;;;;;;4995899;28;20036;-69
2022/04/02 02:56:07;;;;;;;13.65;7.90;;;2.90;99.90;;;;;;4994922;28;20123;-69
2022/04/02 02:58:33;;;;;;;14.20;8.03;;;2.90;99.90;;;;;;4994144;28;21238;-70
2022/04/02 03:00:59;;;;;;;14.43;8.48;;;2.90;99.90;;;;;;4988971;28;20034;-69
2022/04/02 03:03:26;;;;;;;13.83;8.07;;;2.90;99.90;;;;;;4994781;28;20655;-68
2022/04/02 03:05:52;;;;;;;13.18;8.32;;;2.90;99.90;;;;;;4990374;28;20061;-69
2022/04/02 03:08:18;;;;;;;13.70;8.37;;;2.90;99.90;;;;;;4990832;28;20121;-68
2022/04/02 03:10:46;;;;;;;10.53;7.37;;;2.90;99.90;;;;;;4991934;28;20041;-69
2022/04/02 03:13:14;;;;;;;13.70;7.65;;;3.00;99.90;;;;;;4992707;28;20052;-67
2022/04/02 03:15:40;;;;;;;12.48;7.22;;;2.90;99.90;;;;;;4993416;28;20022;-68
2022/04/02 03:18:07;;;;;;;15.47;7.93;;;2.90;99.90;;;;;;4990642;28;20163;-70
2022/04/02 03:20:34;;;;;;;13.70;7.95;;;2.90;99.90;;;;;;4995730;28;20383;-69
2022/04/02 03:23:00;;;;;;;12.95;7.43;;;2.90;99.90;;;;;;4985253;28;20049;-69
2022/04/02 03:25:26;;;;;;;12.17;7.50;;;2.90;99.90;;;;;;4995683;28;20053;-68
2022/04/02 03:27:51;;;;;;;13.40;6.53;;;2.90;99.90;;;;;;4990766;28;20711;-69
2022/04/02 03:30:20;;;;;;;10.57;6.93;;;2.90;99.90;;;;;;4994544;28;20026;-70
2022/04/02 03:32:46;;;;;;;12.95;7.55;;;2.90;99.90;;;;;;4990927;28;20033;-68
2022/04/02 03:35:14;;;;;;;11.65;7.38;;;2.90;99.90;;;;;;4993047;28;20036;-68
2022/04/02 03:37:44;;;;;;;13.23;7.35;;;2.90;99.90;;;;;;4992241;28;20030;-69
2022/04/02 03:40:14;;;;;;;10.13;6.68;;;2.90;99.90;;;;;;4994135;28;20551;-69
2022/04/02 03:42:41;;;;;;;13.07;7.10;;;2.90;99.90;;;;;;4991811;28;20651;-71
2022/04/02 03:45:08;;;;;;;10.60;6.97;;;2.90;99.90;;;;;;4991665;28;20456;-69
2022/04/02 03:47:34;;;;;;;13.02;7.72;;;2.90;99.90;;;;;;4989300;28;20264;-69
2022/04/02 03:50:00;;;;;;;13.73;7.23;;;3.00;99.90;;;;;;4990380;28;20057;-69
2022/04/02 03:52:26;;;;;;;12.23;6.77;;;2.90;99.90;;;;;;4987460;28;20408;-72
2022/04/02 03:54:52;;;;;;;10.88;6.68;;;2.90;99.90;;;;;;4997174;28;20407;-70
2022/04/02 03:57:18;;;;;;;11.53;6.57;;;2.90;99.90;;;;;;4986562;28;20095;-69
2022/04/02 03:59:46;;;;;;;10.75;7.00;;;3.00;99.90;;;;;;4990479;28;20112;-69
2022/04/02 04:02:12;;;;;;;15.82;7.65;;;3.00;99.90;;;;;;4994115;28;20189;-68
2022/04/02 04:04:39;;;;;;;11.77;6.82;;;2.90;99.90;;;;;;4989525;28;20736;-69
2022/04/02 04:07:05;;;;;;;;;;;2.90;99.90;;;;;;4996165;28;20030;-70
2022/04/02 04:09:31;;;;;;;11.50;6.55;;;2.90;99.90;;;;;;4982723;28;19959;-69
2022/04/02 04:11:57;;;;;;;11.82;7.07;;;2.90;99.90;;;;;;4994217;28;20030;-69
2022/04/02 04:14:24;;;;;;;15.20;7.53;;;2.90;99.90;;;;;;4988405;28;20084;-70
2022/04/02 04:16:51;;;;;;;11.25;7.28;;;2.90;99.90;;;;;;4993502;28;20028;-69
2022/04/02 04:19:17;;;;;;;11.77;7.57;;;2.90;99.90;;;;;;4990384;28;20665;-69
2022/04/02 04:21:43;;;;;;;16.48;7.57;;;2.90;99.90;;;;;;4993826;28;20157;-69
2022/04/02 04:24:10;;;;;;;14.57;8.40;;;2.90;99.90;;;;;;4987765;28;20136;-70
2022/04/02 04:26:37;;;;;;;13.30;7.10;;;2.90;99.90;;;;;;4989145;28;20153;-69
2022/04/02 04:29:02;;;;;;;;;;;2.90;99.90;;;;;;4993940;28;20030;-69
2022/04/02 04:31:29;;;;;;;11.05;6.40;;;2.90;99.90;;;;;;4989100;28;20242;-70
2022/04/02 04:33:55;;;;;;;14.48;7.25;;;3.00;99.90;;;;;;4990052;28;20030;-69
2022/04/02 04:36:22;;;;;;;11.97;7.13;;;3.00;99.90;;;;;;4987877;28;20029;-70
2022/04/02 04:38:49;;;;;;;13.88;7.25;;;3.00;99.90;;;;;;4990794;28;20283;-72
2022/04/02 04:41:17;;;;;;;11.95;7.10;;;3.00;99.90;;;;;;4992824;28;20610;-69
2022/04/02 04:43:44;;;;;;;12.57;7.78;;;3.00;99.90;;;;;;4992414;28;20017;-69
2022/04/02 04:46:10;;;;;;;10.82;7.15;;;3.00;99.90;;;;;;4998113;28;20052;-69
2022/04/02 04:48:36;;;;;;;12.10;7.40;;;3.00;99.90;;;;;;4989798;28;20025;-69
2022/04/02 04:51:05;;;;;;;13.68;7.80;;;3.00;99.90;;;;;;4993345;28;20113;-69
2022/04/02 04:53:34;;;;;;;11.50;6.97;;;3.00;99.90;;;;;;4988968;28;20017;-69
2022/04/02 04:56:00;;;;;;;12.30;7.25;;;3.00;99.90;;;;;;4998112;28;20058;-70
2022/04/02 04:58:27;;;;;;;12.73;7.37;;;3.00;99.90;;;;;;4992158;28;20491;-70
2022/04/02 05:00:53;;;;;;;11.95;7.13;;;3.00;99.90;;;;;;4998243;28;20049;-70
2022/04/02 05:03:20;;;;;;;11.57;7.05;;;3.00;99.90;;;;;;4998068;28;20022;-70
2022/04/02 05:05:47;;;;;;;12.70;7.20;;;2.90;99.90;;;;;;4996414;28;20026;-69
2022/04/02 05:08:13;;;;;;;13.82;7.72;;;2.90;99.90;;;;;;4992813;28;20908;-70
2022/04/02 05:10:43;;;;;;;15.85;7.88;;;3.00;99.90;;;;;;4991963;28;20026;-70
2022/04/02 05:13:12;;;;;;;12.48;7.10;;;2.90;99.90;;;;;;4994123;28;20034;-70
2022/04/02 05:15:40;;;;;;;12.90;6.95;;;3.00;99.90;;;;;;4990592;28;20049;-70
2022/04/02 05:18:06;;;;;;;13.85;7.40;;;3.00;99.90;;;;;;4998908;28;20041;-70
2022/04/02 05:20:31;;;;;;;11.10;7.00;;;3.10;99.90;;;;;;4993181;28;20463;-72
2022/04/02 05:22:57;;;;;;;11.87;7.10;;;3.10;99.90;;;;;;4992957;28;20741;-71
2022/04/02 05:25:22;;;;;;;12.63;7.40;;;3.10;99.90;;;;;;4992770;28;20037;-70
2022/04/02 05:27:48;;;;;;;11.30;8.03;;;3.10;99.90;;;;;;4998670;28;20018;-70
2022/04/02 05:30:14;;;;;;;14.77;7.23;;;3.10;99.90;;;;;;4993150;28;20030;-70
2022/04/02 05:32:41;;;;;;;11.47;7.00;;;3.20;99.90;;;;;;4989162;28;20024;-70
2022/04/02 05:35:07;;;;;;;13.45;7.40;;;3.20;99.90;;;;;;4994405;28;20379;-72
2022/04/02 05:37:33;;;;;;;14.60;7.93;;;3.20;99.90;;;;;;4994970;28;20062;-70
2022/04/02 05:39:59;;;;;;;15.07;7.27;;;3.30;99.90;;;;;;4994629;28;20484;-70
2022/04/02 05:42:26;;;;;;;11.90;7.30;;;3.30;99.90;;;;;;4987488;28;20044;-70
2022/04/02 05:44:53;;;;;;;11.93;7.20;;;3.30;99.90;;;;;;4989755;28;20075;-69
2022/04/02 05:47:19;;;;;;;12.90;7.05;;;3.40;99.80;;;;;;4997192;28;20018;-70
2022/04/02 05:49:47;;;;;;;10.17;6.63;;;3.40;99.70;;;;;;4994881;28;20037;-69
2022/04/02 05:52:13;;;;;;;12.85;7.35;;;3.30;99.80;;;;;;4988942;28;20368;-69
2022/04/02 05:54:40;;;;;;;11.23;6.83;;;3.30;99.70;;;;;;4996033;28;20113;-69
2022/04/02 05:57:05;;;;;;;11.43;7.78;;;3.30;99.50;;;;;;4993146;28;20069;-69
2022/04/02 05:59:32;;;;;;;12.40;7.03;;;3.40;99.50;;;;;;4997301;28;20018;-69
2022/04/02 06:01:58;;;;;;;;;;;3.30;99.00;;;;;;4994840;28;20627;-69
2022/04/02 06:04:25;;;;;;;12.55;6.65;;;3.30;99.20;;;;;;4995242;28;19913;-66
2022/04/02 06:06:51;;;;;;;12.82;7.35;;;3.50;99.90;;;;;;4996225;28;20117;-68
2022/04/02 06:09:17;;;;;;;13.07;7.73;;;3.70;99.90;;;;;;4990537;28;20109;-68
2022/04/02 06:11:42;;;;;;;11.83;6.67;;;4.10;98.60;;;;;;4995245;28;20018;-69
2022/04/02 06:14:10;;;;;;;13.70;7.40;;;4.10;97.70;;;;;;4989745;28;20041;-68
2022/04/02 06:16:35;;;;;;;11.75;7.28;;;4.10;97.50;;;;;;4997223;28;20359;-70
2022/04/02 06:19:01;;;;;;;14.83;6.73;;;4.10;97.30;;;;;;4987758;28;20026;-68
2022/04/02 06:21:26;;;;;;;13.20;6.77;;;3.90;97.10;;;;;;4992477;28;20018;-69
2022/04/02 06:23:52;;;;;;;12.80;6.63;;;3.90;97.40;;;;;;4997279;28;20030;-70
2022/04/02 06:26:18;;;;;;;10.90;5.90;;;3.80;97.40;;;;;;4991403;28;20014;-70
2022/04/02 06:28:44;;;;;;;12.50;6.57;;;3.80;97.30;;;;;;4993706;28;20061;-70
2022/04/02 06:31:10;;;;;;;9.98;6.50;;;3.80;97.30;;;;;;4990299;28;20510;-70
2022/04/02 06:33:36;;;;;;;12.80;6.70;;;3.80;97.70;;;;;;4993505;28;20030;-69
2022/04/02 06:36:02;;;;;;;12.63;6.70;;;3.80;97.10;;;;;;4989651;28;20109;-69
2022/04/02 06:38:27;;;;;;;10.23;7.27;;;3.80;97.20;;;;;;4995328;28;20733;-69
2022/04/02 06:40:56;;;;;;;13.70;7.37;;;3.80;97.20;;;;;;4992096;28;20040;-69
2022/04/02 06:43:22;;;;;;;13.45;7.22;;;3.70;97.10;;;;;;4986027;28;20030;-69
2022/04/02 06:45:48;;;;;;;14.67;6.50;;;3.80;97.20;;;;;;4991110;28;20041;-69
2022/04/02 06:48:13;;;;;;;17.10;6.83;;;3.80;96.80;;;;;;4988236;28;20022;-69
2022/04/02 06:50:40;;;;;;;13.00;6.80;;;3.80;96.80;;;;;;4992383;28;20411;-71
2022/04/02 06:53:06;;;;;;;13.25;7.10;;;3.90;96.80;;;;;;4990748;28;20120;-69
2022/04/02 06:55:32;;;;;;;13.83;7.07;;;3.80;96.90;;;;;;4991796;28;20486;-68
2022/04/02 06:57:59;;;;;;;13.80;7.03;;;3.90;96.70;;;;;;4991854;28;20026;-69
2022/04/02 07:00:25;;;;;;;10.45;6.60;;;4.00;96.70;;;;;;4990008;28;20025;-69
2022/04/02 07:02:51;;;;;;;11.30;6.68;;;4.00;96.50;;;;;;4988995;28;20037;-69
2022/04/02 07:05:18;;;;;;;16.85;6.32;;;4.00;96.40;;;;;;4993933;28;20152;-74
2022/04/02 07:07:45;;;;;;;11.85;7.45;;;4.00;96.30;;;;;;4988134;28;20126;-69
2022/04/02 07:10:11;;;;;;;13.57;7.30;;;4.00;96.40;;;;;;4990412;28;20450;-72
2022/04/02 07:12:37;;;;;;;10.90;6.90;;;4.00;96.20;;;;;;4988015;28;20038;-74
2022/04/02 07:15:05;;;;;;;12.80;7.72;;;4.20;95.90;;;;;;4993065;28;20033;-74
2022/04/02 07:17:31;;;;;;;12.15;6.80;;;4.20;95.60;;;;;;4990225;28;20769;-71
2022/04/02 07:19:59;;;;;;;15.67;8.50;;;4.10;95.80;;;;;;4992366;28;20038;-69
2022/04/02 07:22:25;;;;;;;11.43;7.22;;;4.20;95.70;;;;;;4993521;28;20025;-71
2022/04/02 07:24:53;;;;;;;10.95;6.97;;;4.20;95.60;;;;;;4990441;28;20630;-69
2022/04/02 07:27:25;;;;;;;14.10;7.45;;;4.10;95.80;;;;;;4991623;28;20158;-69
2022/04/02 07:29:56;;;;;;;13.02;7.18;;;4.10;95.60;;;;;;4990666;28;20088;-70
2022/04/02 07:32:23;;;;;;;12.75;7.00;;;4.10;95.60;;;;;;4991078;28;20065;-69
2022/04/02 07:34:49;;;;;;;12.55;7.65;;;4.20;95.60;;;;;;4987768;28;20022;-69
2022/04/02 07:37:59;;;;;;;13.18;7.38;;;4.20;95.30;;;;;;4992670;28;20401;-69
2022/04/02 07:40:41;;;;;;;16.92;7.53;;;4.20;95.10;;;;;;4974982;28;20128;-70
2022/04/02 07:43:35;;;;;;;13.45;7.53;;;4.30;95.20;;;;;;4990676;28;20021;-69
2022/04/02 07:46:10;;;;;;;18.15;7.30;;;4.40;95.20;;;;;;4994349;28;20121;-71
2022/04/02 07:48:39;;;;;;;16.88;7.18;;;4.50;95.10;;;;;;4987339;28;20018;-69
2022/04/02 07:51:11;;;;;;;18.73;7.72;;;4.60;95.00;;;;;;4988669;28;20333;-70
2022/04/02 07:53:54;;;;;;;13.48;7.57;;;4.80;94.40;;;;;;4987718;28;20028;-70
2022/04/02 07:56:28;;;;;;;14.38;8.00;;;4.80;94.40;;;;;;4988492;28;20025;-70
2022/04/02 07:59:01;;;;;;;17.45;9.52;;;4.90;94.00;;;;;;4986024;28;20020;-74
2022/04/02 08:01:27;;;;;;;12.73;8.07;;;5.00;93.60;;;;;;4980946;28;20535;-70
2022/04/02 08:03:54;;;;;;;12.45;7.00;;;5.00;93.70;;;;;;4986437;28;20032;-70
2022/04/02 08:06:21;;;;;;;11.70;6.80;;;5.10;93.50;;;;;;4994138;28;20026;-70
2022/04/02 08:08:47;;;;;;;12.38;6.93;;;5.20;93.40;;;;;;4987584;28;20022;-70
2022/04/02 08:11:16;;;;;;;14.32;7.35;;;5.30;93.20;;;;;;4991894;28;20032;-70
2022/04/02 08:13:43;;;;;;;13.90;7.30;;;5.40;93.10;;;;;;4988249;28;20025;-69
2022/04/02 08:16:10;;;;;;;12.43;7.20;;;5.50;92.60;;;;;;4990743;28;20026;-69
2022/04/02 08:18:39;;;;;;;12.48;6.60;;;5.50;92.80;;;;;;4992045;28;20040;-71
2022/04/02 08:21:06;;;;;;;12.15;6.32;;;5.50;93.00;;;;;;4990743;28;20036;-71
2022/04/02 08:23:32;;;;;;;13.45;7.43;;;5.50;92.60;;;;;;4992527;28;20045;-71
2022/04/02 08:26:11;;;;;;;11.63;7.20;;;5.60;92.70;;;;;;4992492;28;20488;-70
2022/04/02 08:28:51;;;;;;;12.68;7.22;;;5.60;92.00;;;;;;4986899;28;20014;-76
2022/04/02 08:31:31;;;;;;;15.68;7.00;;;5.70;92.40;;;;;;4994502;28;20108;-73
2022/04/02 08:34:10;;;;;;;14.20;7.65;;;5.70;92.20;;;;;;4993708;28;20030;-70
2022/04/02 08:36:52;;;;;;;12.40;6.75;;;5.70;92.00;;;;;;4988326;28;20113;-73
2022/04/02 08:39:35;;;;;;;13.05;7.35;;;5.70;92.10;;;;;;4993411;28;20018;-70
2022/04/02 08:42:28;;;;;;;12.75;7.38;;;5.60;91.80;;;;;;4995436;28;20026;-71
2022/04/02 08:45:14;;;;;;;12.23;6.40;;;5.50;91.90;;;;;;4991271;28;20497;-70
2022/04/02 08:47:55;;;;;;;12.27;6.35;;;5.50;91.90;;;;;;4986519;28;20018;-71
2022/04/02 08:50:29;;;;;;;12.38;7.55;;;5.40;91.80;;;;;;4992782;28;20096;-72
2022/04/02 08:53:14;;;;;;;11.75;6.85;;;5.40;92.20;;;;;;4983595;28;20490;-70
2022/04/02 08:56:17;;;;;;;12.00;6.85;;;5.50;92.20;;;;;;4987560;28;20057;-71
2022/04/02 08:58:46;;;;;;;13.85;7.25;;;5.70;91.90;;;;;;4967755;28;20044;-76
2022/04/02 09:01:39;;;;;;;11.57;6.65;;;5.90;91.30;;;;;;4992141;28;20553;-72
2022/04/02 09:04:42;;;;;;;8.98;6.05;;;5.90;91.00;;;;;;4982390;28;20038;-72
2022/04/02 09:08:00;;;;;;;11.40;6.57;;;5.80;90.90;;;;;;4990705;28;20026;-71
2022/04/02 09:11:00;;;;;;;12.00;6.13;;;5.70;90.70;;;;;;4951351;28;20057;-70
2022/04/02 09:13:56;;;;;;;10.27;5.97;;;5.60;90.70;;;;;;4991709;28;20443;-71
2022/04/02 09:16:28;;;;;;;12.93;6.53;;;5.50;90.80;;;;;;4994435;28;20636;-71
2022/04/02 09:19:29;;;;;;;15.70;6.40;;;5.50;91.00;;;;;;4988539;28;20018;-70
2022/04/02 09:21:57;;;;;;;14.15;6.03;;;5.60;90.40;;;;;;4984620;28;20029;-70
2022/04/02 09:24:35;;;;;;;9.57;6.22;;;5.60;90.40;;;;;;4992623;28;20053;-73
2022/04/02 09:27:25;;;;;;;11.60;5.97;;;5.60;90.30;;;;;;4991432;28;20101;-73
2022/04/02 09:29:57;;;;;;;10.32;5.40;;;5.60;89.90;;;;;;4989481;28;20475;-71
2022/04/02 09:32:47;;;;;;;12.82;6.40;;;5.60;89.70;;;;;;4998168;28;20022;-73
2022/04/02 09:35:36;;;;;;;13.63;6.55;;;5.60;89.50;;;;;;4994226;28;20932;-71
2022/04/02 09:38:23;;;;;;;13.02;5.97;;;5.60;89.10;;;;;;4991933;28;20030;-70
2022/04/02 09:40:51;;;;;;;15.00;6.03;;;5.60;89.40;;;;;;4992988;28;20032;-72
2022/04/02 09:43:24;;;;;;;12.45;7.20;;;5.70;89.80;;;;;;4998094;28;20029;-72
2022/04/02 09:46:26;;;;;;;11.63;6.45;;;5.60;89.10;;;;;;4992567;28;20049;-71
2022/04/02 09:49:08;;;;;;;13.93;6.82;;;5.60;89.90;;;;;;4969179;28;20038;-78
2022/04/02 09:51:35;;;;;;;19.50;7.95;;;5.50;89.40;;;;;;4987132;28;20072;-71
2022/04/02 09:54:03;;;;;;;;;;;5.50;89.20;;;;;;4989011;28;20026;-72
2022/04/02 09:56:39;;;;;;;;;;;5.30;89.40;;;;;;4994168;28;19917;-72
2022/04/02 09:59:23;;;;;;;14.93;6.28;;;5.40;89.80;;;;;;4995661;28;20024;-71
2022/04/02 10:02:06;;;;;;;10.90;6.32;;;5.40;90.30;;;;;;4989740;28;20018;-73
2022/04/02 10:04:48;;;;;;;17.20;6.78;;;5.50;90.20;;;;;;4981863;28;20476;-75
2022/04/02 10:07:29;;;;;;;15.60;6.93;;;5.60;90.10;;;;;;4990946;28;20038;-72
2022/04/02 10:09:56;;;;;;;11.95;7.57;;;5.60;90.00;;;;;;4989412;28;20109;-74
2022/04/02 10:12:28;;;;;;;12.40;6.43;;;5.70;89.60;;;;;;4995127;28;20036;-71
2022/04/02 10:14:57;;;;;;;12.40;7.13;;;5.70;89.30;;;;;;4990512;28;20105;-71
2022/04/02 10:17:28;;;;;;;11.63;6.80;;;5.70;89.50;;;;;;4997004;28;20053;-72
2022/04/02 10:19:56;;;;;;;12.32;6.97;;;5.70;88.80;;;;;;4990354;28;20489;-71
2022/04/02 10:22:37;;;;;;;12.75;6.85;;;5.70;89.30;;;;;;4992042;28;20014;-76
2022/04/02 10:25:08;;;;;;;14.35;6.55;;;5.80;88.90;;;;;;4992594;28;20486;-75
2022/04/02 10:27:35;;;;;;;11.77;6.80;;;5.90;88.80;;;;;;4994942;28;20072;-73
2022/04/02 10:30:01;;;;;;;10.93;6.88;;;5.90;88.60;;;;;;4988484;28;20052;-71
2022/04/02 10:32:37;;;;;;;10.33;6.87;;;6.00;87.50;;;;;;4991301;28;20041;-75
2022/04/02 10:35:06;;;;;;;11.63;6.28;;;5.90;87.90;;;;;;4991601;28;20030;-71
2022/04/02 10:37:39;;;;;;;13.57;7.55;;;5.70;87.80;;;;;;4995588;28;20079;-72
2022/04/02 10:40:09;;;;;;;12.25;7.20;;;5.70;88.10;;;;;;4982574;28;20399;-71
2022/04/02 10:42:51;;;;;;;16.95;5.95;;;5.70;87.30;;;;;;4992834;28;20014;-70
2022/04/02 10:45:19;;;;;;;11.20;6.25;;;5.60;87.00;;;;;;4994061;28;20176;-72
2022/04/02 10:47:47;;;;;;;12.88;6.32;;;5.50;88.10;;;;;;4990527;28;20042;-70
2022/04/02 10:50:18;;;;;;;12.65;6.85;;;5.50;88.70;;;;;;4995361;28;20279;-71
2022/04/02 10:52:50;;;;;;;12.50;7.15;;;5.40;88.40;;;;;;4986092;28;20028;-71
2022/04/02 10:55:17;;;;;;;16.23;6.75;;;5.40;89.10;;;;;;4994257;28;20021;-72
2022/04/02 10:57:44;;;;;;;10.77;6.22;;;5.40;89.30;;;;;;4991573;28;20603;-72
2022/04/02 11:00:11;;;;;;;13.73;7.07;;;5.40;88.70;;;;;;4992300;28;20026;-72
2022/04/02 11:02:40;;;;;;;8.57;5.72;;;5.50;88.90;;;;;;4996502;28;20049;-71
2022/04/02 11:05:13;;;;;;;12.32;5.97;;;5.40;88.90;;;;;;4992614;28;20077;-72
2022/04/02 11:07:44;;;;;;;10.95;6.35;;;5.40;88.20;;;;;;4993962;28;20014;-72
2022/04/02 11:10:20;;;;;;;14.40;6.70;;;5.40;87.90;;;;;;4990327;28;20018;-72
2022/04/02 11:12:48;;;;;;;13.95;6.60;;;5.20;88.00;;;;;;4989525;28;20025;-72
2022/04/02 11:15:25;;;;;;;19.83;7.10;;;5.10;88.50;;;;;;4991580;28;20029;-71
2022/04/02 11:17:59;;;;;;;13.25;6.88;;;5.10;88.50;;;;;;4989763;28;20628;-71
2022/04/02 11:20:28;;;;;;;11.82;6.28;;;5.00;88.40;;;;;;4991126;28;20026;-72
2022/04/02 11:22:55;;;;;;;14.80;6.28;;;5.00;88.60;;;;;;4985147;28;20032;-71
2022/04/02 11:25:24;;;;;;;11.98;5.72;;;5.10;88.90;;;;;;4992702;28;20097;-73
2022/04/02 11:27:54;;;;;;;12.15;6.60;;;5.10;88.70;;;;;;4989579;28;20018;-75
2022/04/02 11:30:21;;;;;;;15.52;7.15;;;5.10;89.40;;;;;;4990271;28;20626;-72
2022/04/02 11:32:50;;;;;;;11.73;5.45;;;5.20;89.30;;;;;;4983469;28;20025;-73
2022/04/02 11:35:23;;;;;;;12.30;5.72;;;5.20;88.60;;;;;;4991185;28;20120;-72
2022/04/02 11:38:03;;;;;;;12.52;6.85;;;5.10;89.20;;;;;;4991898;28;20045;-77
2022/04/02 11:40:30;;;;;;;10.40;6.05;;;5.20;88.90;;;;;;4993826;28;20372;-72
2022/04/02 11:43:00;;;;;;;11.27;5.95;;;5.30;88.80;;;;;;4990336;28;20492;-72
2022/04/02 11:45:35;;;;;;;13.30;6.28;;;5.30;89.20;;;;;;4995823;28;20155;-73
2022/04/02 11:48:10;;;;;;;14.07;6.60;;;5.40;89.40;;;;;;4989865;28;20504;-71
2022/04/02 11:50:39;;;;;;;12.40;6.40;;;5.40;89.40;;;;;;4987771;28;20018;-71
2022/04/02 11:53:07;;;;;;;15.80;6.93;;;5.40;90.00;;;;;;4982715;28;20027;-73
2022/04/02 11:55:36;;;;;;;12.68;6.85;;;5.50;89.50;;;;;;4990763;28;20549;-72
2022/04/02 11:58:13;;;;;;;12.52;6.07;;;5.40;89.30;;;;;;4989941;28;20037;-72
2022/04/02 12:00:41;;;;;;;13.38;6.90;;;5.40;89.70;;;;;;4993320;28;20109;-71
2022/04/02 12:03:21;;;;;;;14.18;6.95;;;5.40;89.90;;;;;;4987819;28;20097;-73
2022/04/02 12:05:48;;;;;;;15.20;6.80;;;5.40;90.10;;;;;;4985161;28;20021;-71
2022/04/02 12:08:32;;;;;;;13.88;6.65;;;5.50;90.20;;;;;;4989272;28;20026;-70
2022/04/02 12:10:59;;;;;;;14.02;7.88;;;5.40;90.20;;;;;;4989641;28;20023;-72
2022/04/02 12:13:25;;;;;;;12.30;7.13;;;5.40;90.10;;;;;;4992874;28;20164;-70
2022/04/02 12:16:08;;;;;;;13.75;7.10;;;5.30;90.20;;;;;;4991900;28;20030;-72
2022/04/02 12:18:50;;;;;;;15.18;7.38;;;5.30;90.30;;;;;;4986379;28;20061;-70
2022/04/02 12:21:16;;;;;;;13.98;7.03;;;5.20;90.20;;;;;;4991771;28;20901;-71
2022/04/02 12:23:55;;;;;;;14.13;7.20;;;5.20;90.30;;;;;;4989626;28;20122;-71
2022/04/02 12:26:23;;;;;;;12.07;7.15;;;5.20;90.50;;;;;;4986515;28;20460;-74
2022/04/02 12:28:57;;;;;;;15.27;8.05;;;5.10;90.60;;;;;;4988177;28;20022;-72
2022/04/02 12:31:27;;;;;;;16.10;7.70;;;5.00;90.80;;;;;;4992384;28;20025;-74
2022/04/02 12:33:54;;;;;;;15.13;8.23;;;4.90;90.90;;;;;;4991362;28;20018;-73
2022/04/02 12:36:33;;;;;;;13.02;7.25;;;4.80;91.20;;;;;;4992479;28;20439;-73
2022/04/02 12:39:05;;;;;;;12.70;8.02;;;4.80;91.60;;;;;;4987182;28;20037;-72
2022/04/02 12:41:30;;;;;;;12.52;7.63;;;4.80;91.70;;;;;;4991064;28;20034;-71
2022/04/02 12:44:05;;;;;;;14.43;7.80;;;4.70;91.80;;;;;;4983047;28;20026;-71
2022/04/02 12:46:32;;;;;;;13.23;7.50;;;4.90;92.00;;;;;;4989956;28;20539;-71
2022/04/02 12:48:58;;;;;;;13.98;7.93;;;4.90;91.80;;;;;;4988870;28;20156;-72
2022/04/02 12:51:25;;;;;;;13.95;8.98;;;5.00;91.50;;;;;;4992158;28;20037;-73
2022/04/02 12:54:01;;;;;;;11.43;7.38;;;5.00;91.50;;;;;;4986075;28;20034;-72
2022/04/02 12:56:30;;;;;;;12.70;7.72;;;5.00;91.40;;;;;;4995192;28;20686;-70
2022/04/02 12:58:57;;;;;;;14.48;8.05;;;5.00;91.30;;;;;;4987889;28;20030;-71
2022/04/02 13:01:33;;;;;;;11.20;7.82;;;5.00;91.90;;;;;;4987819;28;20023;-70
2022/04/02 13:04:04;;;;;;;12.98;8.30;;;5.00;92.00;;;;;;4985575;28;20030;-77
2022/04/02 13:06:45;;;;;;;19.88;8.10;;;4.90;92.60;;;;;;4998887;28;20010;-74
2022/04/02 13:09:32;;;;;;;12.95;7.25;;;4.90;92.50;;;;;;4989424;28;20078;-70